sensor_id;sensor_type;location;lat;lon;timestamp;P1;durP1;ratioP1;P2;durP2;ratioP2
23252;SDS011;11795;47.054;15.408;2023-05-07T00:00:00;6.9;;;6.3;;
23252;SDS011;11795;47.054;15.408;2023-05-07T00:02:00;8.1;;;7.4;;
23252;SDS011;11795;47.054;15.408;2023-05-07T00:04:00;8.1;;;7.4;;
23252;SDS011;11795;47.054;15.408;2023-05-07T00:06:00;8.9;;;7.8;;
23252;SDS011;11795;47.054;15.408;2023-05-07T00:08:01;8.9;;;7.8;;
23252;SDS011;11795;47.054;15.408;2023-05-07T00:10:00;8.9;;;7.8;;
23252;SDS011;11795;47.054;15.408;2023-05-07T00:12:01;8.2;;;7.4;;
23252;SDS011;11795;47.054;15.408;2023-05-07T00:14:00;8.2;;;7.4;;
23252;SDS011;11795;47.054;15.408;2023-05-07T00:16:00;7.7;;;6.9;;
23252;SDS011;11795;47.054;15.408;2023-05-07T00:18:00;7.7;;;6.9;;
23252;SDS011;11795;47.054;15.408;2023-05-07T00:20:00;7.7;;;6.9;;
23252;SDS011;11795;47.054;15.408;2023-05-07T00:22:00;7.1;;;6.5;;
23252;SDS011;11795;47.054;15.408;2023-05-07T00:24:00;7.1;;;6.5;;
23252;SDS011;11795;47.054;15.408;2023-05-07T00:26:00;7.4;;;6.7;;
23252;SDS011;11795;47.054;15.408;2023-05-07T00:28:03;7.4;;;6.7;;
23252;SDS011;11795;47.054;15.408;2023-05-07T00:30:00;7.4;;;6.7;;
23252;SDS011;11795;47.054;15.408;2023-05-07T00:32:00;6.5;;;5.9;;
23252;SDS011;11795;47.054;15.408;2023-05-07T00:34:00;6.5;;;5.9;;
23252;SDS011;11795;47.054;15.408;2023-05-07T00:36:02;6.6;;;6.0;;
23252;SDS011;11795;47.054;15.408;2023-05-07T00:38:00;6.6;;;6.0;;
23252;SDS011;11795;47.054;15.408;2023-05-07T00:40:03;6.6;;;6.0;;
23252;SDS011;11795;47.054;15.408;2023-05-07T00:42:00;7.1;;;6.4;;
23252;SDS011;11795;47.054;15.408;2023-05-07T00:44:02;7.1;;;6.4;;
23252;SDS011;11795;47.054;15.408;2023-05-07T00:46:00;6.9;;;6.3;;
23252;SDS011;11795;47.054;15.408;2023-05-07T00:48:00;6.9;;;6.3;;
23252;SDS011;11795;47.054;15.408;2023-05-07T00:50:00;6.9;;;6.3;;
23252;SDS011;11795;47.054;15.408;2023-05-07T00:52:00;6.4;;;5.9;;
23252;SDS011;11795;47.054;15.408;2023-05-07T00:54:00;6.4;;;5.9;;
23252;SDS011;11795;47.054;15.408;2023-05-07T00:56:00;6.8;;;6.2;;
23252;SDS011;11795;47.054;15.408;2023-05-07T00:58:00;6.8;;;6.2;;
23252;SDS011;11795;47.054;15.408;2023-05-07T01:00:00;6.8;;;6.2;;
23252;SDS011;11795;47.054;15.408;2023-05-07T01:02:00;6.3;;;5.8;;
23252;SDS011;11795;47.054;15.408;2023-05-07T01:04:01;6.3;;;5.8;;
23252;SDS011;11795;47.054;15.408;2023-05-07T01:06:00;5.8;;;5.3;;
23252;SDS011;11795;47.054;15.408;2023-05-07T01:08:01;5.8;;;5.3;;
23252;SDS011;11795;47.054;15.408;2023-05-07T01:10:00;5.8;;;5.3;;
23252;SDS011;11795;47.054;15.408;2023-05-07T01:12:00;6.7;;;6.1;;
23252;SDS011;11795;47.054;15.408;2023-05-07T01:14:00;6.7;;;6.1;;
23252;SDS011;11795;47.054;15.408;2023-05-07T01:16:00;5.7;;;5.3;;
23252;SDS011;11795;47.054;15.408;2023-05-07T01:18:01;5.7;;;5.3;;
23252;SDS011;11795;47.054;15.408;2023-05-07T01:20:00;5.7;;;5.3;;
23252;SDS011;11795;47.054;15.408;2023-05-07T01:22:01;5.4;;;5.0;;
23252;SDS011;11795;47.054;15.408;2023-05-07T01:24:00;5.4;;;5.0;;
23252;SDS011;11795;47.054;15.408;2023-05-07T01:26:00;5.1;;;4.6;;
23252;SDS011;11795;47.054;15.408;2023-05-07T01:28:01;5.1;;;4.6;;
23252;SDS011;11795;47.054;15.408;2023-05-07T01:30:00;5.1;;;4.6;;
23252;SDS011;11795;47.054;15.408;2023-05-07T01:32:01;4.3;;;4.0;;
23252;SDS011;11795;47.054;15.408;2023-05-07T01:34:01;4.3;;;4.0;;
23252;SDS011;11795;47.054;15.408;2023-05-07T01:36:02;4.7;;;4.3;;
23252;SDS011;11795;47.054;15.408;2023-05-07T01:38:00;4.7;;;4.3;;
23252;SDS011;11795;47.054;15.408;2023-05-07T01:40:01;4.7;;;4.3;;
23252;SDS011;11795;47.054;15.408;2023-05-07T01:42:01;5.2;;;4.7;;
23252;SDS011;11795;47.054;15.408;2023-05-07T01:44:00;5.2;;;4.7;;
23252;SDS011;11795;47.054;15.408;2023-05-07T01:46:00;4.5;;;4.1;;
23252;SDS011;11795;47.054;15.408;2023-05-07T01:48:01;4.5;;;4.1;;
23252;SDS011;11795;47.054;15.408;2023-05-07T01:50:00;4.5;;;4.1;;
23252;SDS011;11795;47.054;15.408;2023-05-07T01:52:00;3.3;;;3.0;;
23252;SDS011;11795;47.054;15.408;2023-05-07T01:54:01;3.3;;;3.0;;
23252;SDS011;11795;47.054;15.408;2023-05-07T01:56:00;3.0;;;2.6;;
23252;SDS011;11795;47.054;15.408;2023-05-07T01:58:00;3.0;;;2.6;;
23252;SDS011;11795;47.054;15.408;2023-05-07T02:00:00;3.0;;;2.6;;
23252;SDS011;11795;47.054;15.408;2023-05-07T02:02:00;2.6;;;2.4;;
23252;SDS011;11795;47.054;15.408;2023-05-07T02:04:00;2.6;;;2.4;;
23252;SDS011;11795;47.054;15.408;2023-05-07T02:06:01;2.6;;;2.4;;
23252;SDS011;11795;47.054;15.408;2023-05-07T02:08:00;2.6;;;2.4;;
23252;SDS011;11795;47.054;15.408;2023-05-07T02:10:00;2.6;;;2.4;;
23252;SDS011;11795;47.054;15.408;2023-05-07T02:12:01;3.1;;;2.8;;
23252;SDS011;11795;47.054;15.408;2023-05-07T02:14:00;3.1;;;2.8;;
23252;SDS011;11795;47.054;15.408;2023-05-07T02:16:00;3.2;;;2.9;;
23252;SDS011;11795;47.054;15.408;2023-05-07T02:18:02;3.2;;;2.9;;
23252;SDS011;11795;47.054;15.408;2023-05-07T02:20:00;3.2;;;2.9;;
23252;SDS011;11795;47.054;15.408;2023-05-07T02:22:00;3.2;;;2.9;;
23252;SDS011;11795;47.054;15.408;2023-05-07T02:24:00;3.2;;;2.9;;
23252;SDS011;11795;47.054;15.408;2023-05-07T02:26:00;3.1;;;2.8;;
23252;SDS011;11795;47.054;15.408;2023-05-07T02:28:00;3.1;;;2.8;;
23252;SDS011;11795;47.054;15.408;2023-05-07T02:30:00;3.1;;;2.8;;
23252;SDS011;11795;47.054;15.408;2023-05-07T02:32:00;4.5;;;4.1;;
23252;SDS011;11795;47.054;15.408;2023-05-07T02:34:00;4.5;;;4.1;;
23252;SDS011;11795;47.054;15.408;2023-05-07T02:36:08;3.8;;;3.5;;
23252;SDS011;11795;47.054;15.408;2023-05-07T02:38:00;3.8;;;3.5;;
23252;SDS011;11795;47.054;15.408;2023-05-07T02:40:00;3.8;;;3.5;;
23252;SDS011;11795;47.054;15.408;2023-05-07T02:42:01;4.7;;;4.3;;
23252;SDS011;11795;47.054;15.408;2023-05-07T02:44:00;4.7;;;4.3;;
23252;SDS011;11795;47.054;15.408;2023-05-07T02:46:01;4.7;;;4.3;;
23252;SDS011;11795;47.054;15.408;2023-05-07T02:48:00;4.7;;;4.3;;
23252;SDS011;11795;47.054;15.408;2023-05-07T02:50:00;4.7;;;4.3;;
23252;SDS011;11795;47.054;15.408;2023-05-07T02:52:00;4.7;;;4.3;;
23252;SDS011;11795;47.054;15.408;2023-05-07T02:54:01;4.7;;;4.3;;
23252;SDS011;11795;47.054;15.408;2023-05-07T02:56:00;5.6;;;5.0;;
23252;SDS011;11795;47.054;15.408;2023-05-07T02:58:00;5.6;;;5.0;;
23252;SDS011;11795;47.054;15.408;2023-05-07T03:00:09;5.6;;;5.0;;
23252;SDS011;11795;47.054;15.408;2023-05-07T03:02:00;5.4;;;5.0;;
23252;SDS011;11795;47.054;15.408;2023-05-07T03:04:00;5.4;;;5.0;;
23252;SDS011;11795;47.054;15.408;2023-05-07T03:06:00;6.1;;;5.6;;
23252;SDS011;11795;47.054;15.408;2023-05-07T03:08:00;6.1;;;5.6;;
23252;SDS011;11795;47.054;15.408;2023-05-07T03:10:00;6.1;;;5.6;;
23252;SDS011;11795;47.054;15.408;2023-05-07T03:12:01;5.6;;;5.1;;
23252;SDS011;11795;47.054;15.408;2023-05-07T03:14:00;5.6;;;5.1;;
23252;SDS011;11795;47.054;15.408;2023-05-07T03:16:00;5.6;;;5.2;;
23252;SDS011;11795;47.054;15.408;2023-05-07T03:18:00;5.6;;;5.2;;
23252;SDS011;11795;47.054;15.408;2023-05-07T03:20:00;5.6;;;5.2;;
23252;SDS011;11795;47.054;15.408;2023-05-07T03:22:00;5.5;;;5.1;;
23252;SDS011;11795;47.054;15.408;2023-05-07T03:24:00;5.5;;;5.1;;
23252;SDS011;11795;47.054;15.408;2023-05-07T03:26:00;5.2;;;4.8;;
23252;SDS011;11795;47.054;15.408;2023-05-07T03:28:00;5.2;;;4.8;;
23252;SDS011;11795;47.054;15.408;2023-05-07T03:30:00;5.2;;;4.8;;
23252;SDS011;11795;47.054;15.408;2023-05-07T03:32:00;5.8;;;5.3;;
23252;SDS011;11795;47.054;15.408;2023-05-07T03:34:00;5.8;;;5.3;;
23252;SDS011;11795;47.054;15.408;2023-05-07T03:36:00;6.3;;;5.7;;
23252;SDS011;11795;47.054;15.408;2023-05-07T03:38:01;6.3;;;5.7;;
23252;SDS011;11795;47.054;15.408;2023-05-07T03:40:00;6.3;;;5.7;;
23252;SDS011;11795;47.054;15.408;2023-05-07T03:42:01;5.7;;;5.2;;
23252;SDS011;11795;47.054;15.408;2023-05-07T03:44:00;5.7;;;5.2;;
23252;SDS011;11795;47.054;15.408;2023-05-07T03:46:00;5.7;;;5.2;;
23252;SDS011;11795;47.054;15.408;2023-05-07T03:48:00;5.7;;;5.2;;
23252;SDS011;11795;47.054;15.408;2023-05-07T03:50:00;5.7;;;5.2;;
23252;SDS011;11795;47.054;15.408;2023-05-07T03:52:00;6.1;;;5.5;;
23252;SDS011;11795;47.054;15.408;2023-05-07T03:54:00;6.1;;;5.5;;
23252;SDS011;11795;47.054;15.408;2023-05-07T03:56:00;7.3;;;6.6;;
23252;SDS011;11795;47.054;15.408;2023-05-07T03:58:00;7.3;;;6.6;;
23252;SDS011;11795;47.054;15.408;2023-05-07T04:00:00;7.3;;;6.6;;
23252;SDS011;11795;47.054;15.408;2023-05-07T04:02:00;7.5;;;6.8;;
23252;SDS011;11795;47.054;15.408;2023-05-07T04:04:00;7.5;;;6.8;;
23252;SDS011;11795;47.054;15.408;2023-05-07T04:06:00;5.9;;;5.4;;
23252;SDS011;11795;47.054;15.408;2023-05-07T04:08:00;5.9;;;5.4;;
23252;SDS011;11795;47.054;15.408;2023-05-07T04:10:00;5.9;;;5.4;;
23252;SDS011;11795;47.054;15.408;2023-05-07T04:12:01;6.5;;;5.8;;
23252;SDS011;11795;47.054;15.408;2023-05-07T04:14:00;6.5;;;5.8;;
23252;SDS011;11795;47.054;15.408;2023-05-07T04:16:01;6.0;;;5.5;;
23252;SDS011;11795;47.054;15.408;2023-05-07T04:18:00;6.0;;;5.5;;
23252;SDS011;11795;47.054;15.408;2023-05-07T04:20:00;6.0;;;5.5;;
23252;SDS011;11795;47.054;15.408;2023-05-07T04:22:00;5.4;;;5.0;;
23252;SDS011;11795;47.054;15.408;2023-05-07T04:24:00;5.4;;;5.0;;
23252;SDS011;11795;47.054;15.408;2023-05-07T04:26:00;5.3;;;4.8;;
23252;SDS011;11795;47.054;15.408;2023-05-07T04:28:01;5.3;;;4.8;;
23252;SDS011;11795;47.054;15.408;2023-05-07T04:30:00;5.3;;;4.8;;
23252;SDS011;11795;47.054;15.408;2023-05-07T04:32:00;6.1;;;5.6;;
23252;SDS011;11795;47.054;15.408;2023-05-07T04:34:00;6.1;;;5.6;;
23252;SDS011;11795;47.054;15.408;2023-05-07T04:36:03;6.6;;;6.0;;
23252;SDS011;11795;47.054;15.408;2023-05-07T04:38:01;6.6;;;6.0;;
23252;SDS011;11795;47.054;15.408;2023-05-07T04:40:00;6.6;;;6.0;;
23252;SDS011;11795;47.054;15.408;2023-05-07T04:42:00;5.7;;;5.2;;
23252;SDS011;11795;47.054;15.408;2023-05-07T04:44:00;5.7;;;5.2;;
23252;SDS011;11795;47.054;15.408;2023-05-07T04:46:00;6.7;;;6.1;;
23252;SDS011;11795;47.054;15.408;2023-05-07T04:48:00;6.7;;;6.1;;
23252;SDS011;11795;47.054;15.408;2023-05-07T04:50:00;6.7;;;6.1;;
23252;SDS011;11795;47.054;15.408;2023-05-07T04:52:01;8.3;;;7.6;;
23252;SDS011;11795;47.054;15.408;2023-05-07T04:54:00;8.3;;;7.6;;
23252;SDS011;11795;47.054;15.408;2023-05-07T04:56:00;9.1;;;8.3;;
23252;SDS011;11795;47.054;15.408;2023-05-07T04:58:01;9.1;;;8.3;;
23252;SDS011;11795;47.054;15.408;2023-05-07T05:00:00;9.1;;;8.3;;
23252;SDS011;11795;47.054;15.408;2023-05-07T05:02:01;9.1;;;8.3;;
23252;SDS011;11795;47.054;15.408;2023-05-07T05:04:00;9.1;;;8.3;;
23252;SDS011;11795;47.054;15.408;2023-05-07T05:06:00;10.1;;;9.2;;
23252;SDS011;11795;47.054;15.408;2023-05-07T05:08:00;10.1;;;9.2;;
23252;SDS011;11795;47.054;15.408;2023-05-07T05:10:01;10.1;;;9.2;;
23252;SDS011;11795;47.054;15.408;2023-05-07T05:12:00;8.1;;;7.4;;
23252;SDS011;11795;47.054;15.408;2023-05-07T05:14:00;8.1;;;7.4;;
23252;SDS011;11795;47.054;15.408;2023-05-07T05:16:00;8.1;;;7.4;;
23252;SDS011;11795;47.054;15.408;2023-05-07T05:18:00;6.8;;;6.2;;
23252;SDS011;11795;47.054;15.408;2023-05-07T05:20:00;6.8;;;6.2;;
23252;SDS011;11795;47.054;15.408;2023-05-07T05:22:01;6.5;;;5.9;;
23252;SDS011;11795;47.054;15.408;2023-05-07T05:24:00;6.5;;;5.9;;
23252;SDS011;11795;47.054;15.408;2023-05-07T05:26:01;6.5;;;5.9;;
23252;SDS011;11795;47.054;15.408;2023-05-07T05:28:01;6.0;;;5.5;;
23252;SDS011;11795;47.054;15.408;2023-05-07T05:30:00;6.0;;;5.5;;
23252;SDS011;11795;47.054;15.408;2023-05-07T05:32:00;6.4;;;5.8;;
23252;SDS011;11795;47.054;15.408;2023-05-07T05:34:00;6.4;;;5.8;;
23252;SDS011;11795;47.054;15.408;2023-05-07T05:36:01;6.4;;;5.8;;
23252;SDS011;11795;47.054;15.408;2023-05-07T05:38:00;6.1;;;5.6;;
23252;SDS011;11795;47.054;15.408;2023-05-07T05:40:00;6.1;;;5.6;;
23252;SDS011;11795;47.054;15.408;2023-05-07T05:42:00;6.6;;;6.0;;
23252;SDS011;11795;47.054;15.408;2023-05-07T05:44:00;6.6;;;6.0;;
23252;SDS011;11795;47.054;15.408;2023-05-07T05:46:00;6.6;;;6.0;;
23252;SDS011;11795;47.054;15.408;2023-05-07T05:48:00;7.2;;;6.6;;
23252;SDS011;11795;47.054;15.408;2023-05-07T05:50:00;7.2;;;6.6;;
23252;SDS011;11795;47.054;15.408;2023-05-07T05:52:00;6.7;;;6.1;;
23252;SDS011;11795;47.054;15.408;2023-05-07T05:54:00;6.7;;;6.1;;
23252;SDS011;11795;47.054;15.408;2023-05-07T05:56:00;6.7;;;6.1;;
23252;SDS011;11795;47.054;15.408;2023-05-07T05:58:00;5.7;;;5.2;;
23252;SDS011;11795;47.054;15.408;2023-05-07T06:00:00;5.7;;;5.2;;
23252;SDS011;11795;47.054;15.408;2023-05-07T06:02:00;4.4;;;4.0;;
23252;SDS011;11795;47.054;15.408;2023-05-07T06:04:00;4.4;;;4.0;;
23252;SDS011;11795;47.054;15.408;2023-05-07T06:06:00;4.4;;;4.0;;
23252;SDS011;11795;47.054;15.408;2023-05-07T06:08:00;3.3;;;3.0;;
23252;SDS011;11795;47.054;15.408;2023-05-07T06:10:00;3.3;;;3.0;;
23252;SDS011;11795;47.054;15.408;2023-05-07T06:12:00;4.2;;;2.7;;
23252;SDS011;11795;47.054;15.408;2023-05-07T06:14:00;4.2;;;2.7;;
23252;SDS011;11795;47.054;15.408;2023-05-07T06:16:00;4.2;;;2.7;;
23252;SDS011;11795;47.054;15.408;2023-05-07T06:18:00;3.0;;;2.8;;
23252;SDS011;11795;47.054;15.408;2023-05-07T06:20:00;3.0;;;2.8;;
23252;SDS011;11795;47.054;15.408;2023-05-07T06:22:01;3.6;;;2.6;;
23252;SDS011;11795;47.054;15.408;2023-05-07T06:24:00;3.6;;;2.6;;
23252;SDS011;11795;47.054;15.408;2023-05-07T06:26:00;3.6;;;2.6;;
23252;SDS011;11795;47.054;15.408;2023-05-07T06:28:00;2.9;;;2.6;;
23252;SDS011;11795;47.054;15.408;2023-05-07T06:30:00;2.9;;;2.6;;
23252;SDS011;11795;47.054;15.408;2023-05-07T06:32:08;4.2;;;2.7;;
23252;SDS011;11795;47.054;15.408;2023-05-07T06:34:02;4.2;;;2.7;;
23252;SDS011;11795;47.054;15.408;2023-05-07T06:36:00;4.2;;;2.7;;
23252;SDS011;11795;47.054;15.408;2023-05-07T06:38:00;2.4;;;2.2;;
23252;SDS011;11795;47.054;15.408;2023-05-07T06:40:00;2.4;;;2.2;;
23252;SDS011;11795;47.054;15.408;2023-05-07T06:42:00;2.6;;;2.4;;
23252;SDS011;11795;47.054;15.408;2023-05-07T06:44:00;2.6;;;2.4;;
23252;SDS011;11795;47.054;15.408;2023-05-07T06:46:00;2.6;;;2.4;;
23252;SDS011;11795;47.054;15.408;2023-05-07T06:48:00;2.4;;;2.2;;
23252;SDS011;11795;47.054;15.408;2023-05-07T06:50:00;2.4;;;2.2;;
23252;SDS011;11795;47.054;15.408;2023-05-07T06:52:00;3.5;;;2.0;;
23252;SDS011;11795;47.054;15.408;2023-05-07T06:54:00;3.5;;;2.0;;
23252;SDS011;11795;47.054;15.408;2023-05-07T06:56:00;3.5;;;2.0;;
23252;SDS011;11795;47.054;15.408;2023-05-07T06:58:01;2.4;;;2.2;;
23252;SDS011;11795;47.054;15.408;2023-05-07T07:00:00;2.4;;;2.2;;
23252;SDS011;11795;47.054;15.408;2023-05-07T07:02:00;2.9;;;2.0;;
23252;SDS011;11795;47.054;15.408;2023-05-07T07:04:00;2.9;;;2.0;;
23252;SDS011;11795;47.054;15.408;2023-05-07T07:06:02;2.9;;;2.0;;
23252;SDS011;11795;47.054;15.408;2023-05-07T07:08:00;2.5;;;2.0;;
23252;SDS011;11795;47.054;15.408;2023-05-07T07:10:00;2.5;;;2.0;;
23252;SDS011;11795;47.054;15.408;2023-05-07T07:12:00;2.0;;;1.8;;
23252;SDS011;11795;47.054;15.408;2023-05-07T07:14:00;2.0;;;1.8;;
23252;SDS011;11795;47.054;15.408;2023-05-07T07:16:00;2.0;;;1.8;;
23252;SDS011;11795;47.054;15.408;2023-05-07T07:18:00;3.3;;;2.0;;
23252;SDS011;11795;47.054;15.408;2023-05-07T07:20:00;3.3;;;2.0;;
23252;SDS011;11795;47.054;15.408;2023-05-07T07:22:00;2.5;;;2.3;;
23252;SDS011;11795;47.054;15.408;2023-05-07T07:24:00;2.5;;;2.3;;
23252;SDS011;11795;47.054;15.408;2023-05-07T07:26:00;2.5;;;2.3;;
23252;SDS011;11795;47.054;15.408;2023-05-07T07:28:00;3.0;;;2.4;;
23252;SDS011;11795;47.054;15.408;2023-05-07T07:30:00;3.0;;;2.4;;
23252;SDS011;11795;47.054;15.408;2023-05-07T07:32:00;2.7;;;2.3;;
23252;SDS011;11795;47.054;15.408;2023-05-07T07:34:00;2.7;;;2.3;;
23252;SDS011;11795;47.054;15.408;2023-05-07T07:36:00;2.7;;;2.3;;
23252;SDS011;11795;47.054;15.408;2023-05-07T07:38:01;2.5;;;2.3;;
23252;SDS011;11795;47.054;15.408;2023-05-07T07:40:00;2.5;;;2.3;;
23252;SDS011;11795;47.054;15.408;2023-05-07T07:42:00;2.8;;;2.5;;
23252;SDS011;11795;47.054;15.408;2023-05-07T07:44:00;2.8;;;2.5;;
23252;SDS011;11795;47.054;15.408;2023-05-07T07:46:00;2.8;;;2.5;;
23252;SDS011;11795;47.054;15.408;2023-05-07T07:48:00;2.7;;;2.5;;
23252;SDS011;11795;47.054;15.408;2023-05-07T07:50:00;2.7;;;2.5;;
23252;SDS011;11795;47.054;15.408;2023-05-07T07:52:00;3.2;;;2.7;;
23252;SDS011;11795;47.054;15.408;2023-05-07T07:54:02;3.2;;;2.7;;
23252;SDS011;11795;47.054;15.408;2023-05-07T07:56:00;3.2;;;2.7;;
23252;SDS011;11795;47.054;15.408;2023-05-07T07:58:00;2.5;;;2.3;;
23252;SDS011;11795;47.054;15.408;2023-05-07T08:00:00;2.5;;;2.3;;
23252;SDS011;11795;47.054;15.408;2023-05-07T08:02:00;2.9;;;2.5;;
23252;SDS011;11795;47.054;15.408;2023-05-07T08:04:03;2.9;;;2.5;;
23252;SDS011;11795;47.054;15.408;2023-05-07T08:06:00;2.9;;;2.5;;
23252;SDS011;11795;47.054;15.408;2023-05-07T08:08:00;2.4;;;2.1;;
23252;SDS011;11795;47.054;15.408;2023-05-07T08:10:00;2.4;;;2.1;;
23252;SDS011;11795;47.054;15.408;2023-05-07T08:12:01;3.2;;;2.3;;
23252;SDS011;11795;47.054;15.408;2023-05-07T08:14:00;3.2;;;2.3;;
23252;SDS011;11795;47.054;15.408;2023-05-07T08:16:00;3.2;;;2.3;;
23252;SDS011;11795;47.054;15.408;2023-05-07T08:18:01;2.7;;;2.5;;
23252;SDS011;11795;47.054;15.408;2023-05-07T08:20:00;2.7;;;2.5;;
23252;SDS011;11795;47.054;15.408;2023-05-07T08:22:00;2.7;;;2.5;;
23252;SDS011;11795;47.054;15.408;2023-05-07T08:24:00;2.7;;;2.5;;
23252;SDS011;11795;47.054;15.408;2023-05-07T08:26:00;2.7;;;2.5;;
23252;SDS011;11795;47.054;15.408;2023-05-07T08:28:00;3.1;;;2.8;;
23252;SDS011;11795;47.054;15.408;2023-05-07T08:30:00;3.1;;;2.8;;
23252;SDS011;11795;47.054;15.408;2023-05-07T08:32:00;2.5;;;2.3;;
23252;SDS011;11795;47.054;15.408;2023-05-07T08:34:00;2.5;;;2.3;;
23252;SDS011;11795;47.054;15.408;2023-05-07T08:36:00;2.5;;;2.3;;
23252;SDS011;11795;47.054;15.408;2023-05-07T08:38:00;2.5;;;2.3;;
23252;SDS011;11795;47.054;15.408;2023-05-07T08:40:00;2.5;;;2.3;;
23252;SDS011;11795;47.054;15.408;2023-05-07T08:42:00;2.5;;;2.3;;
23252;SDS011;11795;47.054;15.408;2023-05-07T08:44:00;2.5;;;2.3;;
23252;SDS011;11795;47.054;15.408;2023-05-07T08:46:00;2.5;;;2.3;;
23252;SDS011;11795;47.054;15.408;2023-05-07T08:48:02;2.8;;;2.6;;
23252;SDS011;11795;47.054;15.408;2023-05-07T08:50:00;2.8;;;2.6;;
23252;SDS011;11795;47.054;15.408;2023-05-07T08:52:00;2.9;;;2.7;;
23252;SDS011;11795;47.054;15.408;2023-05-07T08:54:00;2.9;;;2.7;;
23252;SDS011;11795;47.054;15.408;2023-05-07T08:56:00;2.9;;;2.7;;
23252;SDS011;11795;47.054;15.408;2023-05-07T08:58:00;2.9;;;2.3;;
23252;SDS011;11795;47.054;15.408;2023-05-07T09:00:00;2.9;;;2.3;;
23252;SDS011;11795;47.054;15.408;2023-05-07T09:02:00;4.2;;;2.7;;
23252;SDS011;11795;47.054;15.408;2023-05-07T09:04:00;4.2;;;2.7;;
23252;SDS011;11795;47.054;15.408;2023-05-07T09:06:00;4.2;;;2.7;;
23252;SDS011;11795;47.054;15.408;2023-05-07T09:08:02;3.0;;;2.7;;
23252;SDS011;11795;47.054;15.408;2023-05-07T09:10:01;3.0;;;2.7;;
23252;SDS011;11795;47.054;15.408;2023-05-07T09:12:00;2.9;;;2.7;;
23252;SDS011;11795;47.054;15.408;2023-05-07T09:14:02;2.9;;;2.7;;
23252;SDS011;11795;47.054;15.408;2023-05-07T09:16:09;2.9;;;2.7;;
23252;SDS011;11795;47.054;15.408;2023-05-07T09:18:01;3.4;;;2.7;;
23252;SDS011;11795;47.054;15.408;2023-05-07T09:20:02;3.4;;;2.7;;
23252;SDS011;11795;47.054;15.408;2023-05-07T09:22:01;2.6;;;2.4;;
23252;SDS011;11795;47.054;15.408;2023-05-07T09:24:00;2.6;;;2.4;;
23252;SDS011;11795;47.054;15.408;2023-05-07T09:26:01;2.6;;;2.4;;
23252;SDS011;11795;47.054;15.408;2023-05-07T09:28:00;2.8;;;2.5;;
23252;SDS011;11795;47.054;15.408;2023-05-07T09:30:03;2.8;;;2.5;;
23252;SDS011;11795;47.054;15.408;2023-05-07T09:32:00;2.5;;;2.3;;
23252;SDS011;11795;47.054;15.408;2023-05-07T09:34:00;2.5;;;2.3;;
23252;SDS011;11795;47.054;15.408;2023-05-07T09:36:02;2.5;;;2.3;;
23252;SDS011;11795;47.054;15.408;2023-05-07T09:38:00;2.4;;;2.2;;
23252;SDS011;11795;47.054;15.408;2023-05-07T09:40:00;2.4;;;2.2;;
23252;SDS011;11795;47.054;15.408;2023-05-07T09:42:01;2.5;;;2.3;;
23252;SDS011;11795;47.054;15.408;2023-05-07T09:44:01;2.5;;;2.3;;
23252;SDS011;11795;47.054;15.408;2023-05-07T09:46:02;2.5;;;2.3;;
23252;SDS011;11795;47.054;15.408;2023-05-07T09:48:00;2.6;;;2.3;;
23252;SDS011;11795;47.054;15.408;2023-05-07T09:50:00;2.6;;;2.3;;
23252;SDS011;11795;47.054;15.408;2023-05-07T09:52:00;2.6;;;2.3;;
23252;SDS011;11795;47.054;15.408;2023-05-07T09:54:02;2.1;;;1.9;;
23252;SDS011;11795;47.054;15.408;2023-05-07T09:56:00;2.1;;;1.9;;
23252;SDS011;11795;47.054;15.408;2023-05-07T09:58:02;2.3;;;2.1;;
23252;SDS011;11795;47.054;15.408;2023-05-07T10:00:01;2.3;;;2.1;;
23252;SDS011;11795;47.054;15.408;2023-05-07T10:02:00;2.3;;;2.1;;
23252;SDS011;11795;47.054;15.408;2023-05-07T10:04:01;2.7;;;2.3;;
23252;SDS011;11795;47.054;15.408;2023-05-07T10:06:00;2.7;;;2.3;;
23252;SDS011;11795;47.054;15.408;2023-05-07T10:08:00;2.9;;;2.7;;
23252;SDS011;11795;47.054;15.408;2023-05-07T10:10:00;2.9;;;2.7;;
23252;SDS011;11795;47.054;15.408;2023-05-07T10:12:00;2.9;;;2.7;;
23252;SDS011;11795;47.054;15.408;2023-05-07T10:14:02;2.0;;;1.9;;
23252;SDS011;11795;47.054;15.408;2023-05-07T10:16:00;2.0;;;1.9;;
23252;SDS011;11795;47.054;15.408;2023-05-07T10:18:00;2.4;;;2.2;;
23252;SDS011;11795;47.054;15.408;2023-05-07T10:20:00;2.4;;;2.2;;
23252;SDS011;11795;47.054;15.408;2023-05-07T10:22:01;2.4;;;2.2;;
23252;SDS011;11795;47.054;15.408;2023-05-07T10:24:03;2.6;;;2.0;;
23252;SDS011;11795;47.054;15.408;2023-05-07T10:26:01;2.6;;;2.0;;
23252;SDS011;11795;47.054;15.408;2023-05-07T10:28:00;1.8;;;1.7;;
23252;SDS011;11795;47.054;15.408;2023-05-07T10:30:03;1.8;;;1.7;;
23252;SDS011;11795;47.054;15.408;2023-05-07T10:32:05;1.8;;;1.7;;
23252;SDS011;11795;47.054;15.408;2023-05-07T10:34:00;3.4;;;2.2;;
23252;SDS011;11795;47.054;15.408;2023-05-07T10:36:01;3.4;;;2.2;;
23252;SDS011;11795;47.054;15.408;2023-05-07T10:38:00;2.8;;;2.1;;
23252;SDS011;11795;47.054;15.408;2023-05-07T10:40:00;2.8;;;2.1;;
23252;SDS011;11795;47.054;15.408;2023-05-07T10:42:10;2.8;;;2.1;;
23252;SDS011;11795;47.054;15.408;2023-05-07T10:44:02;2.5;;;2.3;;
23252;SDS011;11795;47.054;15.408;2023-05-07T10:48:09;2.4;;;1.8;;
23252;SDS011;11795;47.054;15.408;2023-05-07T11:00:00;2.5;;;2.3;;
23252;SDS011;11795;47.054;15.408;2023-05-07T11:02:03;2.5;;;2.3;;
23252;SDS011;11795;47.054;15.408;2023-05-07T11:06:08;2.2;;;1.7;;
23252;SDS011;11795;47.054;15.408;2023-05-07T11:08:01;2.1;;;1.9;;
23252;SDS011;11795;47.054;15.408;2023-05-07T11:10:03;2.1;;;1.9;;
23252;SDS011;11795;47.054;15.408;2023-05-07T11:12:00;2.1;;;1.9;;
23252;SDS011;11795;47.054;15.408;2023-05-07T11:14:00;2.3;;;2.0;;
23252;SDS011;11795;47.054;15.408;2023-05-07T11:16:00;2.3;;;2.0;;
23252;SDS011;11795;47.054;15.408;2023-05-07T11:18:00;2.6;;;1.9;;
23252;SDS011;11795;47.054;15.408;2023-05-07T11:20:01;2.6;;;1.9;;
23252;SDS011;11795;47.054;15.408;2023-05-07T11:22:00;2.6;;;1.9;;
23252;SDS011;11795;47.054;15.408;2023-05-07T11:24:01;2.6;;;1.7;;
23252;SDS011;11795;47.054;15.408;2023-05-07T11:26:00;2.6;;;1.7;;
23252;SDS011;11795;47.054;15.408;2023-05-07T11:28:04;2.5;;;2.0;;
23252;SDS011;11795;47.054;15.408;2023-05-07T11:30:01;2.5;;;2.0;;
23252;SDS011;11795;47.054;15.408;2023-05-07T11:32:01;2.5;;;2.0;;
23252;SDS011;11795;47.054;15.408;2023-05-07T11:34:00;2.8;;;2.0;;
23252;SDS011;11795;47.054;15.408;2023-05-07T11:36:01;2.8;;;2.0;;
23252;SDS011;11795;47.054;15.408;2023-05-07T11:38:00;2.0;;;1.5;;
23252;SDS011;11795;47.054;15.408;2023-05-07T11:40:02;2.0;;;1.5;;
23252;SDS011;11795;47.054;15.408;2023-05-07T11:42:01;2.0;;;1.5;;
23252;SDS011;11795;47.054;15.408;2023-05-07T11:44:00;1.9;;;1.8;;
23252;SDS011;11795;47.054;15.408;2023-05-07T11:46:08;1.9;;;1.8;;
23252;SDS011;11795;47.054;15.408;2023-05-07T11:48:01;1.9;;;1.8;;
23252;SDS011;11795;47.054;15.408;2023-05-07T11:50:02;1.9;;;1.8;;
23252;SDS011;11795;47.054;15.408;2023-05-07T11:52:00;1.9;;;1.8;;
23252;SDS011;11795;47.054;15.408;2023-05-07T11:54:00;2.0;;;1.8;;
23252;SDS011;11795;47.054;15.408;2023-05-07T11:56:00;2.0;;;1.8;;
23252;SDS011;11795;47.054;15.408;2023-05-07T11:58:00;2.1;;;1.9;;
23252;SDS011;11795;47.054;15.408;2023-05-07T12:00:02;2.1;;;1.9;;
23252;SDS011;11795;47.054;15.408;2023-05-07T12:02:00;2.1;;;1.9;;
23252;SDS011;11795;47.054;15.408;2023-05-07T12:04:00;2.2;;;1.5;;
23252;SDS011;11795;47.054;15.408;2023-05-07T12:06:00;2.2;;;1.5;;
23252;SDS011;11795;47.054;15.408;2023-05-07T12:08:00;2.3;;;1.9;;
23252;SDS011;11795;47.054;15.408;2023-05-07T12:10:03;2.3;;;1.9;;
23252;SDS011;11795;47.054;15.408;2023-05-07T12:12:03;2.3;;;1.9;;
23252;SDS011;11795;47.054;15.408;2023-05-07T12:14:00;2.4;;;2.2;;
23252;SDS011;11795;47.054;15.408;2023-05-07T12:16:03;2.4;;;2.2;;
23252;SDS011;11795;47.054;15.408;2023-05-07T12:18:00;2.5;;;1.8;;
23252;SDS011;11795;47.054;15.408;2023-05-07T12:20:00;2.5;;;1.8;;
23252;SDS011;11795;47.054;15.408;2023-05-07T12:22:01;2.5;;;1.8;;
23252;SDS011;11795;47.054;15.408;2023-05-07T12:24:01;2.1;;;1.9;;
23252;SDS011;11795;47.054;15.408;2023-05-07T12:26:00;2.1;;;1.9;;